sensor_id;sensor_type;location;lat;lon;timestamp;P1;durP1;ratioP1;P2;durP2;ratioP2
8650;SDS011;4363;52.346;14.516;2022-08-03T00:01:20;365.77;;;211.90;;
8650;SDS011;4363;52.346;14.516;2022-08-03T00:03:46;366.95;;;207.90;;
8650;SDS011;4363;52.346;14.516;2022-08-03T00:06:12;367.77;;;218.00;;
8650;SDS011;4363;52.346;14.516;2022-08-03T00:08:38;352.17;;;210.80;;
8650;SDS011;4363;52.346;14.516;2022-08-03T00:11:04;370.77;;;218.32;;
8650;SDS011;4363;52.346;14.516;2022-08-03T00:13:31;365.63;;;215.10;;
8650;SDS011;4363;52.346;14.516;2022-08-03T00:15:57;374.40;;;215.60;;
8650;SDS011;4363;52.346;14.516;2022-08-03T00:18:23;384.90;;;222.73;;
8650;SDS011;4363;52.346;14.516;2022-08-03T00:20:49;371.70;;;214.77;;
8650;SDS011;4363;52.346;14.516;2022-08-03T00:23:15;364.27;;;210.10;;
8650;SDS011;4363;52.346;14.516;2022-08-03T00:25:41;355.35;;;209.15;;
8650;SDS011;4363;52.346;14.516;2022-08-03T00:28:07;367.60;;;215.32;;
8650;SDS011;4363;52.346;14.516;2022-08-03T00:30:33;369.35;;;215.02;;
8650;SDS011;4363;52.346;14.516;2022-08-03T00:32:59;363.20;;;210.80;;
8650;SDS011;4363;52.346;14.516;2022-08-03T00:35:25;363.63;;;208.82;;
8650;SDS011;4363;52.346;14.516;2022-08-03T00:37:51;337.85;;;197.35;;
8650;SDS011;4363;52.346;14.516;2022-08-03T00:40:17;366.00;;;207.50;;
8650;SDS011;4363;52.346;14.516;2022-08-03T00:42:53;342.15;;;198.43;;
8650;SDS011;4363;52.346;14.516;2022-08-03T00:45:20;347.90;;;204.25;;
8650;SDS011;4363;52.346;14.516;2022-08-03T00:47:46;354.10;;;203.02;;
8650;SDS011;4363;52.346;14.516;2022-08-03T00:50:12;355.48;;;207.35;;
8650;SDS011;4363;52.346;14.516;2022-08-03T00:52:39;359.38;;;208.65;;
8650;SDS011;4363;52.346;14.516;2022-08-03T00:55:05;366.20;;;208.80;;
8650;SDS011;4363;52.346;14.516;2022-08-03T00:57:31;357.13;;;207.40;;
8650;SDS011;4363;52.346;14.516;2022-08-03T00:59:57;366.80;;;208.75;;
8650;SDS011;4363;52.346;14.516;2022-08-03T01:02:24;376.35;;;216.48;;
8650;SDS011;4363;52.346;14.516;2022-08-03T01:04:50;358.50;;;205.70;;
8650;SDS011;4363;52.346;14.516;2022-08-03T01:07:18;371.38;;;212.55;;
8650;SDS011;4363;52.346;14.516;2022-08-03T01:09:50;369.92;;;208.40;;
8650;SDS011;4363;52.346;14.516;2022-08-03T01:12:23;367.77;;;210.52;;
8650;SDS011;4363;52.346;14.516;2022-08-03T01:15:05;357.65;;;198.88;;
8650;SDS011;4363;52.346;14.516;2022-08-03T01:17:45;367.45;;;208.25;;
8650;SDS011;4363;52.346;14.516;2022-08-03T01:20:14;355.50;;;201.82;;
8650;SDS011;4363;52.346;14.516;2022-08-03T01:27:50;365.25;;;202.93;;
8650;SDS011;4363;52.346;14.516;2022-08-03T01:30:19;339.95;;;190.25;;
8650;SDS011;4363;52.346;14.516;2022-08-03T01:35:12;331.10;;;192.48;;
8650;SDS011;4363;52.346;14.516;2022-08-03T01:37:40;362.52;;;203.10;;
8650;SDS011;4363;52.346;14.516;2022-08-03T01:40:08;361.63;;;202.07;;
8650;SDS011;4363;52.346;14.516;2022-08-03T01:42:37;352.25;;;199.98;;
8650;SDS011;4363;52.346;14.516;2022-08-03T01:45:04;369.02;;;208.82;;
8650;SDS011;4363;52.346;14.516;2022-08-03T01:47:32;359.13;;;205.40;;
8650;SDS011;4363;52.346;14.516;2022-08-03T01:49:58;375.73;;;213.73;;
8650;SDS011;4363;52.346;14.516;2022-08-03T01:52:25;353.77;;;196.80;;
8650;SDS011;4363;52.346;14.516;2022-08-03T01:54:52;353.05;;;197.40;;
8650;SDS011;4363;52.346;14.516;2022-08-03T01:57:18;354.02;;;197.00;;
8650;SDS011;4363;52.346;14.516;2022-08-03T01:59:45;361.55;;;207.25;;
8650;SDS011;4363;52.346;14.516;2022-08-03T02:02:13;357.10;;;202.00;;
8650;SDS011;4363;52.346;14.516;2022-08-03T02:04:41;353.48;;;198.05;;
8650;SDS011;4363;52.346;14.516;2022-08-03T02:07:07;366.98;;;206.15;;
8650;SDS011;4363;52.346;14.516;2022-08-03T02:09:34;361.42;;;204.85;;
8650;SDS011;4363;52.346;14.516;2022-08-03T02:12:01;368.42;;;207.75;;
8650;SDS011;4363;52.346;14.516;2022-08-03T02:14:28;353.60;;;196.80;;
8650;SDS011;4363;52.346;14.516;2022-08-03T02:16:54;368.17;;;208.73;;
8650;SDS011;4363;52.346;14.516;2022-08-03T02:19:21;353.45;;;196.07;;
8650;SDS011;4363;52.346;14.516;2022-08-03T02:21:49;354.85;;;196.68;;
8650;SDS011;4363;52.346;14.516;2022-08-03T02:24:16;332.40;;;190.82;;
8650;SDS011;4363;52.346;14.516;2022-08-03T02:26:42;344.73;;;195.07;;
8650;SDS011;4363;52.346;14.516;2022-08-03T02:29:10;360.95;;;200.65;;
8650;SDS011;4363;52.346;14.516;2022-08-03T02:31:37;376.75;;;215.25;;
8650;SDS011;4363;52.346;14.516;2022-08-03T02:34:05;350.55;;;194.63;;
8650;SDS011;4363;52.346;14.516;2022-08-03T02:36:34;351.05;;;195.57;;
8650;SDS011;4363;52.346;14.516;2022-08-03T02:39:01;363.58;;;204.90;;
8650;SDS011;4363;52.346;14.516;2022-08-03T02:41:36;352.33;;;204.53;;
8650;SDS011;4363;52.346;14.516;2022-08-03T02:44:06;356.03;;;204.77;;
8650;SDS011;4363;52.346;14.516;2022-08-03T02:46:33;350.73;;;195.50;;
8650;SDS011;4363;52.346;14.516;2022-08-03T02:49:01;355.00;;;205.30;;
8650;SDS011;4363;52.346;14.516;2022-08-03T02:51:28;374.83;;;209.75;;
8650;SDS011;4363;52.346;14.516;2022-08-03T02:53:55;351.95;;;199.02;;
8650;SDS011;4363;52.346;14.516;2022-08-03T02:56:23;351.23;;;197.95;;
8650;SDS011;4363;52.346;14.516;2022-08-03T02:58:50;360.98;;;204.30;;
8650;SDS011;4363;52.346;14.516;2022-08-03T03:01:17;351.38;;;195.25;;
8650;SDS011;4363;52.346;14.516;2022-08-03T03:03:44;365.90;;;209.70;;
8650;SDS011;4363;52.346;14.516;2022-08-03T03:06:10;327.25;;;187.50;;
8650;SDS011;4363;52.346;14.516;2022-08-03T03:08:37;355.70;;;198.15;;
8650;SDS011;4363;52.346;14.516;2022-08-03T03:11:03;365.38;;;207.05;;
8650;SDS011;4363;52.346;14.516;2022-08-03T03:13:30;372.97;;;208.83;;
8650;SDS011;4363;52.346;14.516;2022-08-03T03:15:56;360.65;;;202.02;;
8650;SDS011;4363;52.346;14.516;2022-08-03T03:18:26;350.30;;;200.63;;
8650;SDS011;4363;52.346;14.516;2022-08-03T03:20:52;337.05;;;197.38;;
8650;SDS011;4363;52.346;14.516;2022-08-03T03:23:22;340.33;;;195.18;;
8650;SDS011;4363;52.346;14.516;2022-08-03T03:25:49;362.73;;;209.73;;
8650;SDS011;4363;52.346;14.516;2022-08-03T03:28:16;369.95;;;208.27;;
8650;SDS011;4363;52.346;14.516;2022-08-03T03:30:42;361.90;;;213.00;;
8650;SDS011;4363;52.346;14.516;2022-08-03T03:33:08;350.40;;;205.50;;
8650;SDS011;4363;52.346;14.516;2022-08-03T03:35:34;350.85;;;210.10;;
8650;SDS011;4363;52.346;14.516;2022-08-03T03:38:00;358.85;;;208.90;;
8650;SDS011;4363;52.346;14.516;2022-08-03T03:40:26;360.92;;;209.57;;
8650;SDS011;4363;52.346;14.516;2022-08-03T03:42:52;348.30;;;198.48;;
8650;SDS011;4363;52.346;14.516;2022-08-03T03:45:19;370.83;;;205.05;;
8650;SDS011;4363;52.346;14.516;2022-08-03T03:47:45;348.80;;;198.60;;
8650;SDS011;4363;52.346;14.516;2022-08-03T03:50:11;364.15;;;209.32;;
8650;SDS011;4363;52.346;14.516;2022-08-03T03:52:37;369.73;;;214.02;;
8650;SDS011;4363;52.346;14.516;2022-08-03T03:55:03;335.33;;;194.38;;
8650;SDS011;4363;52.346;14.516;2022-08-03T03:57:29;333.80;;;192.02;;
8650;SDS011;4363;52.346;14.516;2022-08-03T03:59:55;348.80;;;195.40;;
8650;SDS011;4363;52.346;14.516;2022-08-03T04:02:21;357.70;;;199.55;;
8650;SDS011;4363;52.346;14.516;2022-08-03T04:04:47;363.08;;;209.00;;
8650;SDS011;4363;52.346;14.516;2022-08-03T04:07:34;358.02;;;204.52;;
8650;SDS011;4363;52.346;14.516;2022-08-03T04:10:22;363.15;;;210.05;;
8650;SDS011;4363;52.346;14.516;2022-08-03T04:13:07;354.20;;;201.98;;
8650;SDS011;4363;52.346;14.516;2022-08-03T04:15:34;455.55;;;256.63;;
8650;SDS011;4363;52.346;14.516;2022-08-03T04:18:02;381.77;;;219.63;;
8650;SDS011;4363;52.346;14.516;2022-08-03T04:20:29;464.15;;;263.48;;
8650;SDS011;4363;52.346;14.516;2022-08-03T04:22:56;486.23;;;274.63;;
8650;SDS011;4363;52.346;14.516;2022-08-03T04:25:24;480.88;;;268.58;;
8650;SDS011;4363;52.346;14.516;2022-08-03T04:27:51;486.33;;;278.40;;
8650;SDS011;4363;52.346;14.516;2022-08-03T04:30:19;403.38;;;231.80;;
8650;SDS011;4363;52.346;14.516;2022-08-03T04:32:46;383.27;;;213.68;;
8650;SDS011;4363;52.346;14.516;2022-08-03T04:35:16;365.23;;;205.38;;
8650;SDS011;4363;52.346;14.516;2022-08-03T04:37:43;454.00;;;255.65;;
8650;SDS011;4363;52.346;14.516;2022-08-03T04:40:12;424.90;;;240.00;;
8650;SDS011;4363;52.346;14.516;2022-08-03T04:42:39;410.33;;;228.13;;
8650;SDS011;4363;52.346;14.516;2022-08-03T04:45:05;391.65;;;230.75;;
8650;SDS011;4363;52.346;14.516;2022-08-03T04:47:32;441.20;;;254.57;;
8650;SDS011;4363;52.346;14.516;2022-08-03T04:50:02;460.73;;;258.98;;
8650;SDS011;4363;52.346;14.516;2022-08-03T04:52:29;397.58;;;228.30;;
8650;SDS011;4363;52.346;14.516;2022-08-03T04:54:55;461.92;;;258.65;;
8650;SDS011;4363;52.346;14.516;2022-08-03T04:57:21;374.58;;;215.32;;
8650;SDS011;4363;52.346;14.516;2022-08-03T04:59:47;384.65;;;223.63;;
8650;SDS011;4363;52.346;14.516;2022-08-03T05:02:16;428.10;;;247.52;;
8650;SDS011;4363;52.346;14.516;2022-08-03T05:04:42;421.58;;;234.50;;
8650;SDS011;4363;52.346;14.516;2022-08-03T05:07:10;353.38;;;200.07;;
8650;SDS011;4363;52.346;14.516;2022-08-03T05:09:36;399.05;;;226.60;;
8650;SDS011;4363;52.346;14.516;2022-08-03T05:12:03;404.80;;;231.43;;
8650;SDS011;4363;52.346;14.516;2022-08-03T05:14:29;413.10;;;232.32;;
8650;SDS011;4363;52.346;14.516;2022-08-03T05:16:54;525.35;;;294.73;;
8650;SDS011;4363;52.346;14.516;2022-08-03T05:19:20;413.85;;;232.55;;
8650;SDS011;4363;52.346;14.516;2022-08-03T05:21:46;436.67;;;240.75;;
8650;SDS011;4363;52.346;14.516;2022-08-03T05:24:12;386.48;;;217.95;;
8650;SDS011;4363;52.346;14.516;2022-08-03T05:26:38;432.98;;;241.80;;
8650;SDS011;4363;52.346;14.516;2022-08-03T05:29:04;378.63;;;214.25;;
8650;SDS011;4363;52.346;14.516;2022-08-03T05:31:30;409.98;;;227.90;;
8650;SDS011;4363;52.346;14.516;2022-08-03T05:33:56;537.37;;;301.97;;
8650;SDS011;4363;52.346;14.516;2022-08-03T05:36:22;436.92;;;246.63;;
8650;SDS011;4363;52.346;14.516;2022-08-03T05:38:48;385.83;;;217.63;;
8650;SDS011;4363;52.346;14.516;2022-08-03T05:41:14;452.20;;;256.13;;
8650;SDS011;4363;52.346;14.516;2022-08-03T05:43:40;362.08;;;205.13;;
8650;SDS011;4363;52.346;14.516;2022-08-03T05:46:06;444.48;;;251.85;;
8650;SDS011;4363;52.346;14.516;2022-08-03T05:48:32;452.10;;;258.25;;
8650;SDS011;4363;52.346;14.516;2022-08-03T05:50:57;403.38;;;228.35;;
8650;SDS011;4363;52.346;14.516;2022-08-03T05:53:23;413.80;;;242.68;;
8650;SDS011;4363;52.346;14.516;2022-08-03T05:55:50;478.85;;;272.65;;
8650;SDS011;4363;52.346;14.516;2022-08-03T05:58:16;486.88;;;272.63;;
8650;SDS011;4363;52.346;14.516;2022-08-03T06:00:42;460.48;;;265.00;;
8650;SDS011;4363;52.346;14.516;2022-08-03T06:03:08;423.65;;;240.07;;
8650;SDS011;4363;52.346;14.516;2022-08-03T06:05:34;434.35;;;249.88;;
8650;SDS011;4363;52.346;14.516;2022-08-03T06:08:01;449.75;;;254.35;;
8650;SDS011;4363;52.346;14.516;2022-08-03T06:10:27;413.88;;;241.35;;
8650;SDS011;4363;52.346;14.516;2022-08-03T06:12:53;375.40;;;245.48;;
8650;SDS011;4363;52.346;14.516;2022-08-03T06:15:19;482.58;;;298.80;;
8650;SDS011;4363;52.346;14.516;2022-08-03T06:17:46;428.27;;;255.20;;
8650;SDS011;4363;52.346;14.516;2022-08-03T06:20:12;452.63;;;266.63;;
8650;SDS011;4363;52.346;14.516;2022-08-03T06:22:40;446.73;;;266.77;;
8650;SDS011;4363;52.346;14.516;2022-08-03T06:25:06;448.02;;;258.38;;
8650;SDS011;4363;52.346;14.516;2022-08-03T06:27:32;459.48;;;262.13;;
8650;SDS011;4363;52.346;14.516;2022-08-03T06:29:58;453.45;;;258.05;;
8650;SDS011;4363;52.346;14.516;2022-08-03T06:32:24;456.40;;;266.88;;
8650;SDS011;4363;52.346;14.516;2022-08-03T06:34:50;476.42;;;271.20;;
8650;SDS011;4363;52.346;14.516;2022-08-03T06:37:16;474.35;;;271.95;;
8650;SDS011;4363;52.346;14.516;2022-08-03T06:39:43;475.00;;;268.35;;
8650;SDS011;4363;52.346;14.516;2022-08-03T06:42:09;460.92;;;265.85;;
8650;SDS011;4363;52.346;14.516;2022-08-03T06:44:35;418.15;;;254.98;;
8650;SDS011;4363;52.346;14.516;2022-08-03T06:47:02;402.75;;;252.57;;
8650;SDS011;4363;52.346;14.516;2022-08-03T06:49:28;427.40;;;264.70;;
8650;SDS011;4363;52.346;14.516;2022-08-03T06:51:54;431.55;;;263.50;;
8650;SDS011;4363;52.346;14.516;2022-08-03T06:54:21;409.45;;;251.73;;
8650;SDS011;4363;52.346;14.516;2022-08-03T06:56:48;434.15;;;272.50;;
8650;SDS011;4363;52.346;14.516;2022-08-03T06:59:14;426.73;;;271.30;;
8650;SDS011;4363;52.346;14.516;2022-08-03T07:01:40;400.00;;;255.82;;
8650;SDS011;4363;52.346;14.516;2022-08-03T07:04:06;518.17;;;319.80;;
8650;SDS011;4363;52.346;14.516;2022-08-03T07:06:32;493.75;;;312.27;;
8650;SDS011;4363;52.346;14.516;2022-08-03T07:08:58;455.80;;;288.88;;
8650;SDS011;4363;52.346;14.516;2022-08-03T07:11:24;497.88;;;307.00;;
8650;SDS011;4363;52.346;14.516;2022-08-03T07:13:50;437.80;;;277.13;;
8650;SDS011;4363;52.346;14.516;2022-08-03T07:16:16;466.80;;;296.73;;
8650;SDS011;4363;52.346;14.516;2022-08-03T07:18:42;494.90;;;308.50;;
8650;SDS011;4363;52.346;14.516;2022-08-03T07:21:08;421.13;;;271.45;;
8650;SDS011;4363;52.346;14.516;2022-08-03T07:23:37;398.40;;;258.77;;
8650;SDS011;4363;52.346;14.516;2022-08-03T07:26:03;458.50;;;288.60;;
8650;SDS011;4363;52.346;14.516;2022-08-03T07:28:29;477.67;;;295.08;;
8650;SDS011;4363;52.346;14.516;2022-08-03T07:30:55;472.67;;;295.50;;
8650;SDS011;4363;52.346;14.516;2022-08-03T07:33:21;406.73;;;267.60;;
8650;SDS011;4363;52.346;14.516;2022-08-03T07:35:47;417.20;;;271.50;;
8650;SDS011;4363;52.346;14.516;2022-08-03T07:38:13;384.88;;;252.55;;
8650;SDS011;4363;52.346;14.516;2022-08-03T07:40:40;388.67;;;256.17;;
8650;SDS011;4363;52.346;14.516;2022-08-03T07:43:06;419.45;;;270.20;;
8650;SDS011;4363;52.346;14.516;2022-08-03T07:45:32;389.58;;;259.77;;
8650;SDS011;4363;52.346;14.516;2022-08-03T07:47:57;400.00;;;265.00;;
8650;SDS011;4363;52.346;14.516;2022-08-03T07:50:24;389.25;;;259.70;;
8650;SDS011;4363;52.346;14.516;2022-08-03T07:52:50;385.52;;;259.52;;
8650;SDS011;4363;52.346;14.516;2022-08-03T07:55:18;396.20;;;268.00;;
8650;SDS011;4363;52.346;14.516;2022-08-03T07:57:44;406.85;;;274.00;;
8650;SDS011;4363;52.346;14.516;2022-08-03T08:00:17;388.70;;;262.42;;
8650;SDS011;4363;52.346;14.516;2022-08-03T08:02:43;346.45;;;239.77;;
8650;SDS011;4363;52.346;14.516;2022-08-03T08:05:09;408.83;;;270.67;;
8650;SDS011;4363;52.346;14.516;2022-08-03T08:07:36;378.77;;;270.67;;
8650;SDS011;4363;52.346;14.516;2022-08-03T08:10:03;391.73;;;262.30;;
8650;SDS011;4363;52.346;14.516;2022-08-03T08:12:29;388.90;;;263.67;;
8650;SDS011;4363;52.346;14.516;2022-08-03T08:14:55;383.05;;;264.98;;
8650;SDS011;4363;52.346;14.516;2022-08-03T08:17:21;425.55;;;285.30;;
8650;SDS011;4363;52.346;14.516;2022-08-03T08:19:47;424.17;;;289.30;;
8650;SDS011;4363;52.346;14.516;2022-08-03T08:22:13;389.30;;;282.20;;
8650;SDS011;4363;52.346;14.516;2022-08-03T08:24:39;398.88;;;285.42;;
8650;SDS011;4363;52.346;14.516;2022-08-03T08:27:07;379.85;;;267.20;;
8650;SDS011;4363;52.346;14.516;2022-08-03T08:29:35;400.92;;;276.60;;
8650;SDS011;4363;52.346;14.516;2022-08-03T08:32:01;414.65;;;286.58;;
8650;SDS011;4363;52.346;14.516;2022-08-03T08:34:27;410.38;;;285.33;;
8650;SDS011;4363;52.346;14.516;2022-08-03T08:36:53;397.88;;;279.40;;
8650;SDS011;4363;52.346;14.516;2022-08-03T08:39:19;395.17;;;275.85;;
8650;SDS011;4363;52.346;14.516;2022-08-03T08:41:45;372.38;;;263.80;;
8650;SDS011;4363;52.346;14.516;2022-08-03T08:44:11;401.30;;;279.70;;
8650;SDS011;4363;52.346;14.516;2022-08-03T08:46:37;395.98;;;280.13;;
8650;SDS011;4363;52.346;14.516;2022-08-03T08:49:03;391.38;;;282.15;;
8650;SDS011;4363;52.346;14.516;2022-08-03T08:51:33;389.25;;;274.60;;
8650;SDS011;4363;52.346;14.516;2022-08-03T08:54:02;395.05;;;286.65;;
8650;SDS011;4363;52.346;14.516;2022-08-03T08:56:28;410.60;;;309.90;;
8650;SDS011;4363;52.346;14.516;2022-08-03T08:58:59;410.70;;;313.80;;
8650;SDS011;4363;52.346;14.516;2022-08-03T09:01:25;380.80;;;289.38;;
8650;SDS011;4363;52.346;14.516;2022-08-03T09:03:51;383.55;;;301.30;;
8650;SDS011;4363;52.346;14.516;2022-08-03T09:06:18;397.42;;;308.45;;
8650;SDS011;4363;52.346;14.516;2022-08-03T09:08:44;404.05;;;313.20;;
8650;SDS011;4363;52.346;14.516;2022-08-03T09:11:10;402.13;;;305.98;;
8650;SDS011;4363;52.346;14.516;2022-08-03T09:13:37;396.05;;;305.08;;
8650;SDS011;4363;52.346;14.516;2022-08-03T09:16:14;369.20;;;271.70;;
8650;SDS011;4363;52.346;14.516;2022-08-03T09:18:40;387.83;;;283.20;;
8650;SDS011;4363;52.346;14.516;2022-08-03T09:21:13;404.98;;;294.55;;
8650;SDS011;4363;52.346;14.516;2022-08-03T09:23:43;382.80;;;294.83;;
8650;SDS011;4363;52.346;14.516;2022-08-03T09:26:10;447.90;;;342.23;;
8650;SDS011;4363;52.346;14.516;2022-08-03T09:28:36;412.95;;;321.85;;
8650;SDS011;4363;52.346;14.516;2022-08-03T09:31:02;418.58;;;320.65;;
8650;SDS011;4363;52.346;14.516;2022-08-03T09:33:28;379.27;;;284.92;;
8650;SDS011;4363;52.346;14.516;2022-08-03T09:35:54;353.83;;;286.50;;
8650;SDS011;4363;52.346;14.516;2022-08-03T09:38:21;410.60;;;313.40;;
8650;SDS011;4363;52.346;14.516;2022-08-03T09:40:51;405.15;;;315.25;;
8650;SDS011;4363;52.346;14.516;2022-08-03T09:43:17;413.88;;;311.40;;
8650;SDS011;4363;52.346;14.516;2022-08-03T09:45:44;409.17;;;309.95;;
8650;SDS011;4363;52.346;14.516;2022-08-03T09:48:23;366.65;;;281.88;;
8650;SDS011;4363;52.346;14.516;2022-08-03T09:50:50;402.27;;;316.98;;
8650;SDS011;4363;52.346;14.516;2022-08-03T09:53:17;393.40;;;312.60;;
8650;SDS011;4363;52.346;14.516;2022-08-03T09:56:16;398.92;;;321.60;;
8650;SDS011;4363;52.346;14.516;2022-08-03T09:58:43;398.73;;;322.50;;
8650;SDS011;4363;52.346;14.516;2022-08-03T10:01:10;399.58;;;319.35;;
8650;SDS011;4363;52.346;14.516;2022-08-03T10:03:37;383.02;;;316.75;;
8650;SDS011;4363;52.346;14.516;2022-08-03T10:06:18;386.67;;;311.73;;
8650;SDS011;4363;52.346;14.516;2022-08-03T10:08:46;376.63;;;304.40;;
8650;SDS011;4363;52.346;14.516;2022-08-03T10:11:12;393.15;;;304.52;;
8650;SDS011;4363;52.346;14.516;2022-08-03T10:13:53;396.67;;;316.02;;
8650;SDS011;4363;52.346;14.516;2022-08-03T10:16:19;414.00;;;327.35;;
8650;SDS011;4363;52.346;14.516;2022-08-03T10:18:45;410.02;;;332.60;;
8650;SDS011;4363;52.346;14.516;2022-08-03T10:21:11;386.48;;;321.02;;
8650;SDS011;4363;52.346;14.516;2022-08-03T10:23:41;407.25;;;326.85;;
8650;SDS011;4363;52.346;14.516;2022-08-03T10:26:08;427.40;;;341.15;;
8650;SDS011;4363;52.346;14.516;2022-08-03T10:28:39;395.83;;;323.55;;
8650;SDS011;4363;52.346;14.516;2022-08-03T10:31:05;399.85;;;308.45;;
8650;SDS011;4363;52.346;14.516;2022-08-03T10:33:33;397.33;;;329.60;;
8650;SDS011;4363;52.346;14.516;2022-08-03T10:35:59;390.40;;;325.45;;
8650;SDS011;4363;52.346;14.516;2022-08-03T10:39:00;396.95;;;320.75;;
8650;SDS011;4363;52.346;14.516;2022-08-03T10:41:21;428.98;;;344.75;;
8650;SDS011;4363;52.346;14.516;2022-08-03T10:46:22;416.25;;;347.95;;
8650;SDS011;4363;52.346;14.516;2022-08-03T10:48:48;398.92;;;338.10;;
8650;SDS011;4363;52.346;14.516;2022-08-03T10:51:16;434.35;;;356.85;;
8650;SDS011;4363;52.346;14.516;2022-08-03T10:53:42;392.77;;;340.77;;
8650;SDS011;4363;52.346;14.516;2022-08-03T10:59:11;394.65;;;341.83;;
8650;SDS011;4363;52.346;14.516;2022-08-03T11:01:56;391.63;;;342.75;;
8650;SDS011;4363;52.346;14.516;2022-08-03T11:04:22;411.55;;;352.38;;
8650;SDS011;4363;52.346;14.516;2022-08-03T11:07:18;401.33;;;346.90;;
8650;SDS011;4363;52.346;14.516;2022-08-03T11:09:41;405.05;;;349.50;;
8650;SDS011;4363;52.346;14.516;2022-08-03T11:12:20;420.13;;;356.00;;
8650;SDS011;4363;52.346;14.516;2022-08-03T11:14:46;401.45;;;345.52;;
8650;SDS011;4363;52.346;14.516;2022-08-03T11:17:12;445.45;;;369.95;;
8650;SDS011;4363;52.346;14.516;2022-08-03T11:19:45;399.33;;;337.15;;
8650;SDS011;4363;52.346;14.516;2022-08-03T11:22:11;434.60;;;355.25;;
8650;SDS011;4363;52.346;14.516;2022-08-03T11:27:27;399.80;;;354.02;;
8650;SDS011;4363;52.346;14.516;2022-08-03T11:29:58;397.75;;;342.20;;
8650;SDS011;4363;52.346;14.516;2022-08-03T11:35:23;390.08;;;337.70;;
8650;SDS011;4363;52.346;14.516;2022-08-03T11:46:00;409.55;;;354.08;;
8650;SDS011;4363;52.346;14.516;2022-08-03T11:48:27;388.35;;;337.83;;
8650;SDS011;4363;52.346;14.516;2022-08-03T11:50:53;405.30;;;342.02;;
8650;SDS011;4363;52.346;14.516;2022-08-03T11:53:19;403.52;;;349.30;;
8650;SDS011;4363;52.346;14.516;2022-08-03T11:55:45;394.35;;;350.75;;
8650;SDS011;4363;52.346;14.516;2022-08-03T11:58:24;409.83;;;361.38;;
8650;SDS011;4363;52.346;14.516;2022-08-03T12:00:50;406.77;;;362.00;;
8650;SDS011;4363;52.346;14.516;2022-08-03T12:03:17;405.83;;;361.35;;
8650;SDS011;4363;52.346;14.516;2022-08-03T12:08:10;415.70;;;370.33;;
8650;SDS011;4363;52.346;14.516;2022-08-03T12:10:38;418.55;;;373.52;;
8650;SDS011;4363;52.346;14.516;2022-08-03T12:13:05;417.25;;;372.83;;
8650;SDS011;4363;52.346;14.516;2022-08-03T12:15:33;450.63;;;401.33;;
8650;SDS011;4363;52.346;14.516;2022-08-03T12:17:59;426.60;;;380.92;;
8650;SDS011;4363;52.346;14.516;2022-08-03T12:20:26;424.92;;;379.65;;
8650;SDS011;4363;52.346;14.516;2022-08-03T12:22:53;413.92;;;371.73;;
8650;SDS011;4363;52.346;14.516;2022-08-03T12:25:23;425.27;;;382.35;;
8650;SDS011;4363;52.346;14.516;2022-08-03T12:27:50;444.60;;;398.80;;
8650;SDS011;4363;52.346;14.516;2022-08-03T12:30:16;434.90;;;389.33;;
8650;SDS011;4363;52.346;14.516;2022-08-03T12:32:42;429.70;;;386.40;;
8650;SDS011;4363;52.346;14.516;2022-08-03T12:35:08;441.58;;;396.77;;
8650;SDS011;4363;52.346;14.516;2022-08-03T12:37:35;441.00;;;396.45;;
8650;SDS011;4363;52.346;14.516;2022-08-03T12:40:02;420.67;;;376.13;;
8650;SDS011;4363;52.346;14.516;2022-08-03T12:42:33;443.83;;;398.58;;
8650;SDS011;4363;52.346;14.516;2022-08-03T12:44:59;453.23;;;406.08;;
8650;SDS011;4363;52.346;14.516;2022-08-03T12:47:25;453.05;;;406.77;;
8650;SDS011;4363;52.346;14.516;2022-08-03T12:49:51;452.60;;;406.55;;
8650;SDS011;4363;52.346;14.516;2022-08-03T12:52:20;450.17;;;404.67;;
8650;SDS011;4363;52.346;14.516;2022-08-03T12:54:56;474.90;;;425.88;;
8650;SDS011;4363;52.346;14.516;2022-08-03T12:57:23;474.17;;;425.83;;
8650;SDS011;4363;52.346;14.516;2022-08-03T12:59:49;439.33;;;396.35;;
8650;SDS011;4363;52.346;14.516;2022-08-03T13:02:15;456.20;;;411.67;;
8650;SDS011;4363;52.346;14.516;2022-08-03T13:04:42;453.40;;;408.65;;
8650;SDS011;4363;52.346;14.516;2022-08-03T13:07:10;459.70;;;413.38;;
8650;SDS011;4363;52.346;14.516;2022-08-03T13:09:46;468.35;;;420.60;;
8650;SDS011;4363;52.346;14.516;2022-08-03T13:12:13;453.02;;;408.42;;
8650;SDS011;4363;52.346;14.516;2022-08-03T13:14:40;452.65;;;407.42;;
8650;SDS011;4363;52.346;14.516;2022-08-03T13:17:07;467.52;;;419.65;;
8650;SDS011;4363;52.346;14.516;2022-08-03T13:19:33;469.45;;;422.20;;
8650;SDS011;4363;52.346;14.516;2022-08-03T13:22:00;465.90;;;421.02;;
8650;SDS011;4363;52.346;14.516;2022-08-03T13:24:26;468.95;;;422.70;;
8650;SDS011;4363;52.346;14.516;2022-08-03T13:26:52;491.27;;;442.73;;
8650;SDS011;4363;52.346;14.516;2022-08-03T13:29:18;474.80;;;429.33;;
8650;SDS011;4363;52.346;14.516;2022-08-03T13:31:44;480.77;;;433.77;;
8650;SDS011;4363;52.346;14.516;2022-08-03T13:34:10;464.67;;;419.17;;
8650;SDS011;4363;52.346;14.516;2022-08-03T13:36:36;461.30;;;416.15;;
8650;SDS011;4363;52.346;14.516;2022-08-03T13:39:02;466.67;;;420.67;;
8650;SDS011;4363;52.346;14.516;2022-08-03T13:41:28;480.25;;;432.67;;
8650;SDS011;4363;52.346;14.516;2022-08-03T13:43:54;481.88;;;434.20;;
8650;SDS011;4363;52.346;14.516;2022-08-03T13:46:20;461.48;;;417.02;;
8650;SDS011;4363;52.346;14.516;2022-08-03T13:48:46;473.83;;;428.48;;
8650;SDS011;4363;52.346;14.516;2022-08-03T13:51:12;477.25;;;430.05;;
8650;SDS011;4363;52.346;14.516;2022-08-03T13:53:38;465.08;;;420.55;;
8650;SDS011;4363;52.346;14.516;2022-08-03T13:56:04;475.75;;;429.95;;
8650;SDS011;4363;52.346;14.516;2022-08-03T13:58:30;485.95;;;439.05;;
8650;SDS011;4363;52.346;14.516;2022-08-03T14:00:56;477.33;;;432.23;;
8650;SDS011;4363;52.346;14.516;2022-08-03T14:03:22;499.90;;;450.75;;
8650;SDS011;4363;52.346;14.516;2022-08-03T14:05:48;476.02;;;431.73;;
8650;SDS011;4363;52.346;14.516;2022-08-03T14:08:14;478.48;;;432.90;;
8650;SDS011;4363;52.346;14.516;2022-08-03T14:10:41;497.13;;;451.58;;
8650;SDS011;4363;52.346;14.516;2022-08-03T14:13:09;510.00;;;465.83;;
8650;SDS011;4363;52.346;14.516;2022-08-03T14:15:35;544.13;;;493.35;;
8650;SDS011;4363;52.346;14.516;2022-08-03T14:18:01;519.20;;;473.27;;
8650;SDS011;4363;52.346;14.516;2022-08-03T14:20:27;523.33;;;478.33;;
8650;SDS011;4363;52.346;14.516;2022-08-03T14:22:53;525.40;;;479.40;;
8650;SDS011;4363;52.346;14.516;2022-08-03T14:25:19;550.42;;;503.00;;
8650;SDS011;4363;52.346;14.516;2022-08-03T14:27:45;554.25;;;507.85;;
8650;SDS011;4363;52.346;14.516;2022-08-03T14:30:11;544.30;;;498.42;;
8650;SDS011;4363;52.346;14.516;2022-08-03T14:32:38;542.80;;;498.42;;
8650;SDS011;4363;52.346;14.516;2022-08-03T14:35:04;576.72;;;529.78;;
8650;SDS011;4363;52.346;14.516;2022-08-03T14:37:30;590.40;;;543.10;;
8650;SDS011;4363;52.346;14.516;2022-08-03T14:39:57;592.03;;;543.20;;